Time;durP1;ratioP1;P1;durP2;ratioP2;P2;SDS_P1;SDS_P2;PMS_P1;PMS_P2;Temp;Humidity;BMP_temperature;BMP_pressure;BME280_temperature;BME280_humidity;BME280_pressure;Samples;Min_cycle;Max_cycle;Signal;HPM_P1;HPM_P2
2022/03/14 00:00:01;;;;;;;2.65;2.25;;;19.70;32.70;;;;;;5114408;28;20563;-67
2022/03/14 00:02:27;;;;;;;2.90;2.03;;;19.80;32.40;;;;;;5113090;28;20063;-73
2022/03/14 00:04:52;;;;;;;2.13;1.92;;;20.00;32.20;;;;;;5112955;28;20077;-73
2022/03/14 00:07:18;;;;;;;3.58;1.90;;;20.10;32.00;;;;;;5113002;28;20042;-74
2022/03/14 00:09:44;;;;;;;2.35;2.15;;;20.30;31.90;;;;;;5114152;28;20035;-73
2022/03/14 00:12:13;;;;;;;2.28;1.70;;;20.40;31.70;;;;;;5112782;28;20052;-74
2022/03/14 00:14:38;;;;;;;2.22;1.52;;;20.50;31.50;;;;;;5113051;28;20047;-74
2022/03/14 00:17:11;;;;;;;1.80;1.52;;;20.70;31.40;;;;;;5112605;28;20639;-74
2022/03/14 00:19:36;;;;;;;2.70;1.35;;;20.80;31.30;;;;;;5114092;28;20040;-73
2022/03/14 00:22:03;;;;;;;1.90;1.33;;;20.90;31.20;;;;;;5113820;28;20569;-74
2022/03/14 00:24:29;;;;;;;1.40;1.15;;;21.00;31.10;;;;;;5112900;28;20069;-75
2022/03/14 00:26:59;;;;;;;1.73;1.30;;;21.10;31.00;;;;;;5112452;28;20043;-74
2022/03/14 00:29:24;;;;;;;1.55;1.05;;;21.10;30.90;;;;;;5112584;28;20119;-73
2022/03/14 00:31:58;;;;;;;1.67;1.23;;;21.20;30.80;;;;;;5113401;28;20139;-73
2022/03/14 00:34:23;;;;;;;1.52;0.95;;;21.30;30.80;;;;;;5112684;28;20108;-73
2022/03/14 00:36:49;;;;;;;2.28;1.40;;;21.30;30.70;;;;;;5112135;28;20486;-74
2022/03/14 00:39:14;;;;;;;1.90;1.70;;;21.40;31.40;;;;;;5111836;28;20050;-74
2022/03/14 00:41:40;;;;;;;1.67;0.90;;;21.50;30.60;;;;;;5112244;28;20438;-74
2022/03/14 00:44:15;;;;;;;1.40;1.00;;;21.60;30.50;;;;;;5113648;28;20059;-73
2022/03/14 00:46:41;;;;;;;1.15;0.90;;;21.60;30.50;;;;;;5113432;28;20051;-73
2022/03/14 00:49:07;;;;;;;1.10;0.80;;;21.70;30.40;;;;;;5112077;28;20054;-73
2022/03/14 00:51:35;;;;;;;1.30;0.98;;;21.80;30.40;;;;;;5112001;28;20114;-74
2022/03/14 00:54:01;;;;;;;1.38;1.10;;;21.80;30.30;;;;;;5113294;28;20047;-74
2022/03/14 00:56:28;;;;;;;1.20;0.90;;;21.90;30.30;;;;;;5112958;28;20173;-73
2022/03/14 00:58:55;;;;;;;1.30;0.98;;;22.00;30.20;;;;;;5113313;28;20080;-74
2022/03/14 01:01:21;;;;;;;1.67;1.02;;;22.00;30.20;;;;;;5113207;28;20433;-74
2022/03/14 01:03:47;;;;;;;1.48;0.70;;;22.10;30.10;;;;;;5111769;28;20038;-73
2022/03/14 01:06:12;;;;;;;1.50;0.85;;;22.10;30.10;;;;;;5111890;28;20032;-74
2022/03/14 01:08:38;;;;;;;1.40;0.85;;;22.10;30.00;;;;;;5111677;28;20062;-73
2022/03/14 01:11:04;;;;;;;2.63;1.02;;;22.20;30.00;;;;;;5111737;28;20126;-75
2022/03/14 01:13:30;;;;;;;1.13;0.60;;;22.20;30.00;;;;;;5111878;28;20070;-69
2022/03/14 01:15:56;;;;;;;1.23;0.63;;;22.30;30.00;;;;;;5111564;28;20071;-70
2022/03/14 01:18:21;;;;;;;1.48;0.85;;;22.40;30.00;;;;;;5111553;28;20036;-67
2022/03/14 01:20:50;;;;;;;1.30;0.60;;;22.40;30.00;;;;;;5112284;28;20023;-74
2022/03/14 01:23:16;;;;;;;0.80;0.50;;;22.40;30.00;;;;;;5111295;28;20039;-74
2022/03/14 01:25:42;;;;;;;0.77;0.45;;;22.40;29.90;;;;;;5113065;28;20127;-73
2022/03/14 01:28:14;;;;;;;0.95;0.60;;;22.50;30.00;;;;;;5111616;28;20094;-74
2022/03/14 01:30:43;;;;;;;0.98;0.47;;;22.50;29.90;;;;;;5112745;28;20102;-74
2022/03/14 01:33:08;;;;;;;1.00;0.68;;;22.70;30.00;;;;;;5112667;28;20039;-73
2022/03/14 01:35:34;;;;;;;1.00;0.50;;;22.70;29.90;;;;;;5111219;28;20479;-73
2022/03/14 01:37:59;;;;;;;1.45;0.60;;;22.70;29.90;;;;;;5112419;28;20035;-73
2022/03/14 01:40:25;;;;;;;1.05;0.60;;;22.70;29.80;;;;;;5111254;28;20089;-74
2022/03/14 01:42:51;;;;;;;1.30;0.80;;;22.70;29.80;;;;;;5112784;28;20040;-74
2022/03/14 01:45:19;;;;;;;1.15;0.60;;;22.70;29.90;;;;;;5111209;28;20398;-74
2022/03/14 01:47:45;;;;;;;0.73;0.47;;;22.70;29.90;;;;;;5111450;28;20055;-73
2022/03/14 01:50:13;;;;;;;1.10;0.65;;;22.70;30.00;;;;;;5112318;28;20036;-74
2022/03/14 01:52:39;;;;;;;1.83;0.70;;;22.70;30.00;;;;;;5112553;28;20463;-74
2022/03/14 01:55:08;;;;;;;0.80;0.32;;;22.70;30.00;;;;;;5112466;28;20407;-73
2022/03/14 01:57:34;;;;;;;0.95;0.47;;;22.70;30.00;;;;;;5112119;28;20055;-74
2022/03/14 02:00:01;;;;;;;0.90;0.50;;;22.80;30.00;;;;;;5112361;28;20497;-73
2022/03/14 02:02:27;;;;;;;0.85;0.40;;;22.80;29.90;;;;;;5112308;28;20075;-74
2022/03/14 02:04:53;;;;;;;0.77;0.38;;;22.90;29.90;;;;;;5110519;28;20038;-72
2022/03/14 02:07:21;;;;;;;1.30;0.40;;;22.90;29.90;;;;;;5111065;28;20455;-68
2022/03/14 02:09:46;;;;;;;1.30;0.40;;;23.00;29.90;;;;;;5112365;28;20032;-73
2022/03/14 02:12:12;;;;;;;0.70;0.40;;;23.00;29.80;;;;;;5111359;28;20382;-73
2022/03/14 02:14:39;;;;;;;1.15;0.40;;;23.10;29.80;;;;;;5112180;28;20546;-74
2022/03/14 02:17:11;;;;;;;0.68;0.43;;;23.10;29.80;;;;;;5110778;28;20092;-68
2022/03/14 02:19:37;;;;;;;1.20;0.80;;;23.20;29.80;;;;;;5110829;28;20044;-69
2022/03/14 02:22:04;;;;;;;0.55;0.25;;;23.30;29.80;;;;;;5112064;28;20085;-72
2022/03/14 02:24:31;;;;;;;0.70;0.47;;;23.30;29.70;;;;;;5111174;28;20043;-72
2022/03/14 02:26:57;;;;;;;1.10;0.47;;;23.30;29.70;;;;;;5112204;28;20048;-74
2022/03/14 02:29:24;;;;;;;0.80;0.47;;;23.40;29.70;;;;;;5111451;28;20093;-68
2022/03/14 02:31:51;;;;;;;1.77;0.30;;;23.40;29.60;;;;;;5110567;28;20047;-67
2022/03/14 02:34:16;;;;;;;1.27;0.30;;;23.40;29.60;;;;;;5110898;28;20043;-68
2022/03/14 02:36:43;;;;;;;0.80;0.20;;;23.50;29.60;;;;;;5093615;28;20458;-73
2022/03/14 02:39:09;;;;;;;0.70;0.30;;;23.40;29.60;;;;;;5111061;28;20044;-73
2022/03/14 02:41:36;;;;;;;0.73;0.30;;;23.50;29.60;;;;;;5110826;28;20626;-73
2022/03/14 02:44:06;;;;;;;0.90;0.30;;;23.50;29.60;;;;;;5110683;28;20118;-74
2022/03/14 02:46:37;;;;;;;0.77;0.30;;;23.60;29.50;;;;;;5110836;28;20040;-68
2022/03/14 02:49:04;;;;;;;0.60;0.30;;;23.60;29.50;;;;;;5111782;28;20076;-73
2022/03/14 02:51:30;;;;;;;0.50;0.30;;;23.70;29.50;;;;;;5111845;28;20100;-74
2022/03/14 02:53:57;;;;;;;0.68;0.28;;;23.70;29.50;;;;;;5111864;28;20504;-71
2022/03/14 02:56:23;;;;;;;0.57;0.30;;;23.70;29.50;;;;;;5110179;28;20058;-73
2022/03/14 02:58:51;;;;;;;0.55;0.20;;;23.70;29.40;;;;;;5110759;28;20410;-69
2022/03/14 03:01:18;;;;;;;0.90;0.30;;;23.80;29.40;;;;;;5110622;28;20101;-73
2022/03/14 03:03:44;;;;;;;1.63;0.20;;;23.80;29.50;;;;;;5113020;28;20028;-71
2022/03/14 03:06:11;;;;;;;0.70;0.30;;;23.80;29.40;;;;;;5114284;28;20380;-69
2022/03/14 03:08:37;;;;;;;0.50;0.30;;;23.90;29.40;;;;;;5115413;28;20042;-72
2022/03/14 03:11:04;;;;;;;0.30;0.20;;;23.90;29.40;;;;;;5114074;28;20475;-73
2022/03/14 03:13:31;;;;;;;0.70;0.30;;;23.90;29.50;;;;;;5114004;28;20050;-72
2022/03/14 03:15:56;;;;;;;0.50;0.28;;;23.80;29.50;;;;;;5113942;28;20405;-68
2022/03/14 03:18:24;;;;;;;0.70;0.40;;;23.80;29.50;;;;;;5113946;28;20040;-74
2022/03/14 03:20:50;;;;;;;0.50;0.20;;;23.80;29.50;;;;;;5113878;28;20057;-74
2022/03/14 03:23:15;;;;;;;0.47;0.20;;;23.80;29.60;;;;;;5115325;28;20039;-69
2022/03/14 03:25:41;;;;;;;0.60;0.30;;;23.80;29.60;;;;;;5114300;28;20067;-67
2022/03/14 03:28:07;;;;;;;0.40;0.20;;;23.80;29.70;;;;;;5113856;28;20098;-67
2022/03/14 03:30:32;;;;;;;0.93;0.20;;;23.80;29.60;;;;;;5113722;28;20058;-74
2022/03/14 03:32:58;;;;;;;0.50;0.20;;;23.80;29.60;;;;;;5114917;28;20157;-72
2022/03/14 03:35:24;;;;;;;0.50;0.20;;;23.80;29.60;;;;;;5114749;28;20507;-73
2022/03/14 03:37:49;;;;;;;0.40;0.20;;;23.90;29.60;;;;;;5114722;28;20043;-73
2022/03/14 03:40:15;;;;;;;0.60;0.30;;;23.80;29.70;;;;;;5113587;28;20043;-72
2022/03/14 03:42:41;;;;;;;0.55;0.20;;;23.90;29.70;;;;;;5114741;28;20031;-74
2022/03/14 03:45:10;;;;;;;0.52;0.20;;;23.90;29.70;;;;;;5113465;28;20036;-74
2022/03/14 03:47:36;;;;;;;0.40;0.20;;;23.90;29.60;;;;;;5114637;28;20422;-67
2022/03/14 03:50:01;;;;;;;0.63;0.20;;;23.90;29.60;;;;;;5113268;28;20282;-70
2022/03/14 03:52:27;;;;;;;0.40;0.20;;;23.90;29.60;;;;;;5114473;28;20039;-74
2022/03/14 03:54:56;;;;;;;0.40;0.28;;;23.90;29.60;;;;;;5113101;28;20391;-73
2022/03/14 03:57:21;;;;;;;0.35;0.15;;;23.90;29.70;;;;;;5112215;28;20100;-68
2022/03/14 03:59:47;;;;;;;0.68;0.20;;;23.90;29.60;;;;;;5112991;28;20411;-73
2022/03/14 04:02:13;;;;;;;0.40;0.20;;;23.90;29.60;;;;;;5114417;28;20036;-68
2022/03/14 04:04:39;;;;;;;0.55;0.20;;;24.00;29.70;;;;;;5113207;28;20079;-73
2022/03/14 04:07:08;;;;;;;0.50;0.20;;;24.00;29.70;;;;;;5112980;28;20043;-73
2022/03/14 04:09:34;;;;;;;0.63;0.30;;;23.90;29.70;;;;;;5113141;28;20475;-74
2022/03/14 04:11:59;;;;;;;0.30;0.10;;;24.00;29.70;;;;;;5112926;28;20123;-72
2022/03/14 04:14:28;;;;;;;0.50;0.20;;;24.00;29.70;;;;;;5112853;28;20039;-67
2022/03/14 04:16:54;;;;;;;0.35;0.20;;;24.00;29.70;;;;;;5113961;28;20081;-74
2022/03/14 04:19:22;;;;;;;0.47;0.20;;;24.00;29.70;;;;;;5112942;28;20378;-73
2022/03/14 04:21:48;;;;;;;0.30;0.10;;;24.00;29.70;;;;;;5112696;28;20046;-73
2022/03/14 04:24:14;;;;;;;1.00;0.10;;;24.10;29.70;;;;;;5114061;28;20135;-73
2022/03/14 04:26:40;;;;;;;0.40;0.17;;;24.10;29.70;;;;;;5112720;28;20501;-67
2022/03/14 04:29:08;;;;;;;0.65;0.25;;;24.10;29.80;;;;;;5113148;28;20036;-73
2022/03/14 04:31:34;;;;;;;0.40;0.20;;;24.10;29.70;;;;;;5112508;28;20039;-73
2022/03/14 04:33:59;;;;;;;0.30;0.20;;;24.10;30.30;;;;;;5113709;28;20062;-74
2022/03/14 04:36:28;;;;;;;0.50;0.20;;;24.10;29.70;;;;;;5112287;28;20487;-68
2022/03/14 04:38:54;;;;;;;0.30;0.10;;;24.10;29.70;;;;;;5113634;28;20043;-67
2022/03/14 04:41:20;;;;;;;0.95;0.20;;;24.20;29.70;;;;;;5113499;28;20139;-74
2022/03/14 04:43:46;;;;;;;0.35;0.20;;;24.20;29.70;;;;;;5112512;28;20028;-74
2022/03/14 04:46:12;;;;;;;0.35;0.10;;;24.20;29.70;;;;;;5111901;28;20484;-73
2022/03/14 04:48:37;;;;;;;1.00;0.20;;;24.30;29.70;;;;;;5113460;28;20380;-69
2022/03/14 04:51:03;;;;;;;0.50;0.20;;;24.30;29.70;;;;;;5112184;28;20040;-74
2022/03/14 04:53:29;;;;;;;0.40;0.20;;;24.30;29.70;;;;;;5112368;28;20483;-68
2022/03/14 04:55:57;;;;;;;0.63;0.10;;;24.30;29.70;;;;;;5113255;28;20645;-67
2022/03/14 04:58:26;;;;;;;0.38;0.20;;;24.30;29.60;;;;;;5112182;28;20048;-74
2022/03/14 05:00:53;;;;;;;0.55;0.20;;;24.40;29.70;;;;;;5111887;28;20539;-73
2022/03/14 05:03:19;;;;;;;0.20;0.10;;;24.40;29.70;;;;;;5111920;28;20486;-73
2022/03/14 05:05:45;;;;;;;0.40;0.20;;;24.40;29.60;;;;;;5113015;28;20088;-73
2022/03/14 05:08:10;;;;;;;0.20;0.10;;;24.40;29.60;;;;;;5112108;28;20411;-74
2022/03/14 05:10:36;;;;;;;0.50;0.20;;;24.50;29.60;;;;;;5111781;28;20513;-73
2022/03/14 05:13:02;;;;;;;0.43;0.20;;;24.50;29.60;;;;;;5111979;28;20039;-75
2022/03/14 05:15:29;;;;;;;0.13;0.10;;;24.50;29.60;;;;;;5111809;28;20039;-73
2022/03/14 05:17:57;;;;;;;0.40;0.20;;;24.50;29.60;;;;;;5111921;28;20044;-68
2022/03/14 05:20:23;;;;;;;0.60;0.20;;;24.50;29.60;;;;;;5112746;28;20032;-74
2022/03/14 05:22:49;;;;;;;0.43;0.20;;;24.50;29.60;;;;;;5111880;28;20061;-67
2022/03/14 05:25:18;;;;;;;0.20;0.10;;;24.60;29.70;;;;;;5111412;28;20051;-75
2022/03/14 05:27:43;;;;;;;0.40;0.20;;;24.60;29.70;;;;;;5111786;28;20093;-74
2022/03/14 05:30:09;;;;;;;0.77;0.30;;;24.60;29.70;;;;;;5112720;28;20383;-74
2022/03/14 05:32:36;;;;;;;0.60;0.57;;;24.60;29.60;;;;;;5111360;28;20067;-68
2022/03/14 05:35:03;;;;;;;0.57;0.20;;;24.70;29.70;;;;;;5111282;28;20036;-75
2022/03/14 05:37:29;;;;;;;0.57;0.20;;;24.70;29.60;;;;;;5111526;28;20043;-71
2022/03/14 05:39:55;;;;;;;0.32;0.17;;;24.80;29.70;;;;;;5111324;28;20555;-74
2022/03/14 05:42:21;;;;;;;0.50;0.13;;;24.70;29.60;;;;;;5094291;28;20085;-68
2022/03/14 05:44:47;;;;;;;0.30;0.10;;;24.80;29.60;;;;;;5111535;28;20035;-75
2022/03/14 05:47:13;;;;;;;0.43;0.10;;;24.90;29.70;;;;;;5110875;28;20498;-72
2022/03/14 05:49:38;;;;;;;0.43;0.17;;;24.90;29.60;;;;;;5112178;28;20035;-74
2022/03/14 05:52:05;;;;;;;0.45;0.10;;;24.90;29.60;;;;;;5112313;28;20031;-71
2022/03/14 05:54:35;;;;;;;0.40;0.20;;;24.90;29.60;;;;;;5112455;28;20120;-69
2022/03/14 05:57:00;;;;;;;0.28;0.10;;;24.90;29.60;;;;;;5111973;28;20423;-74
2022/03/14 05:59:26;;;;;;;0.40;0.13;;;25.00;29.60;;;;;;5111055;28;20047;-68
2022/03/14 06:01:52;;;;;;;0.30;0.10;;;25.00;29.60;;;;;;5110975;28;20035;-68
2022/03/14 06:04:21;;;;;;;0.70;0.40;;;25.00;30.10;;;;;;5112298;28;20046;-70
2022/03/14 06:06:47;;;;;;;0.30;0.10;;;25.00;29.60;;;;;;5110246;28;20058;-74
2022/03/14 06:09:13;;;;;;;0.30;0.13;;;25.10;29.60;;;;;;5111128;28;20043;-72
2022/03/14 06:11:40;;;;;;;0.35;0.20;;;25.10;29.60;;;;;;5110272;28;20048;-70
2022/03/14 06:14:05;;;;;;;1.10;0.20;;;25.10;29.60;;;;;;5112148;28;20047;-71
2022/03/14 06:16:32;;;;;;;2.58;0.22;;;25.10;29.80;;;;;;5110340;28;20142;-72
2022/03/14 06:18:57;;;;;;;0.35;0.10;;;25.00;30.00;;;;;;5111623;28;20039;-68
2022/03/14 06:21:23;;;;;;;1.77;0.20;;;24.80;30.30;;;;;;5111222;28;20027;-70
2022/03/14 06:23:49;;;;;;;1.52;0.20;;;24.60;30.70;;;;;;5112307;28;20032;-68
2022/03/14 06:26:15;;;;;;;12.55;1.40;;;24.30;31.10;;;;;;5109779;28;20422;-73
2022/03/14 06:28:42;;;;;;;1.17;0.30;;;24.10;31.50;;;;;;5108993;28;20040;-73
2022/03/14 06:31:09;;;;;;;0.43;0.20;;;24.00;32.00;;;;;;5105200;28;20483;-73
2022/03/14 06:33:36;;;;;;;0.68;0.40;;;23.90;32.30;;;;;;5104814;28;20093;-72
2022/03/14 06:36:02;;;;;;;4.55;0.40;;;23.70;33.30;;;;;;5106515;28;20070;-69
2022/03/14 06:38:27;;;;;;;7.35;0.40;;;23.70;32.90;;;;;;5094049;28;20040;-71
2022/03/14 06:40:56;;;;;;;4.57;0.40;;;23.60;33.40;;;;;;5112269;28;20086;-75
2022/03/14 06:43:23;;;;;;;3.17;0.30;;;23.50;33.80;;;;;;5124365;27;20040;-73
2022/03/14 06:45:49;;;;;;;0.90;0.30;;;23.50;34.00;;;;;;5097218;27;20044;-70
2022/03/14 06:48:15;;;;;;;2.95;0.20;;;23.50;34.10;;;;;;5094955;28;20483;-71
2022/03/14 06:50:41;;;;;;;1.77;0.40;;;23.60;34.20;;;;;;5092814;28;20032;-75
2022/03/14 06:53:06;;;;;;;1.85;0.20;;;23.70;34.00;;;;;;5097343;28;20031;-70
2022/03/14 06:55:33;;;;;;;1.08;0.30;;;23.80;33.80;;;;;;5098414;28;20395;-71
2022/03/14 06:57:59;;;;;;;1.65;0.20;;;23.90;33.50;;;;;;5095497;28;20036;-71
2022/03/14 07:00:26;;;;;;;1.88;0.30;;;24.00;33.20;;;;;;5100055;28;20047;-71
2022/03/14 07:02:53;;;;;;;1.50;0.20;;;24.20;33.00;;;;;;5113122;27;20084;-71
2022/03/14 07:05:20;;;;;;;0.85;0.30;;;24.30;32.80;;;;;;5098557;27;20050;-71
2022/03/14 07:07:47;;;;;;;2.15;0.20;;;24.40;32.60;;;;;;5097346;27;20065;-71
2022/03/14 07:10:14;;;;;;;0.45;0.10;;;24.50;32.50;;;;;;5111034;27;20043;-74
2022/03/14 07:12:45;;;;;;;1.40;0.20;;;24.50;32.30;;;;;;5105013;27;20047;-70
2022/03/14 07:15:14;;;;;;;0.95;0.22;;;24.50;32.50;;;;;;5094592;27;20132;-73
2022/03/14 07:17:40;;;;;;;0.35;0.10;;;24.40;32.70;;;;;;5095908;28;20054;-74
2022/03/14 07:20:07;;;;;;;1.15;0.30;;;24.30;33.00;;;;;;5083254;28;20121;-73
2022/03/14 07:22:35;;;;;;;0.50;0.20;;;24.20;33.30;;;;;;5089800;28;20052;-69
2022/03/14 07:25:06;;;;;;;0.60;0.20;;;24.10;33.70;;;;;;5082616;28;20035;-71
2022/03/14 07:27:31;;;;;;;;;;;24.00;34.00;;;;;;5092259;28;20039;-73
2022/03/14 07:29:57;;;;;;;0.65;0.20;;;23.90;34.10;;;;;;5092295;27;20029;-74
2022/03/14 07:32:23;;;;;;;1.40;0.20;;;23.80;34.50;;;;;;5099949;27;20040;-75
2022/03/14 07:34:48;;;;;;;0.20;0.10;;;23.80;34.60;;;;;;5089242;28;20649;-73
2022/03/14 07:37:14;;;;;;;0.35;0.10;;;23.90;34.50;;;;;;5106686;27;20588;-73
2022/03/14 07:39:42;;;;;;;1.15;0.20;;;24.00;34.30;;;;;;5108496;27;20059;-78
2022/03/14 07:42:08;;;;;;;1.48;0.17;;;24.10;34.10;;;;;;5094099;28;20084;-71
2022/03/14 07:44:34;;;;;;;0.22;0.10;;;24.20;33.90;;;;;;5096056;28;20039;-74
2022/03/14 07:46:59;;;;;;;1.85;0.10;;;24.30;33.80;;;;;;5105793;27;20044;-74
2022/03/14 07:49:27;;;;;;;1.15;0.20;;;24.30;33.50;;;;;;5089433;28;20721;-77
2022/03/14 07:51:53;;;;;;;0.57;0.10;;;24.40;33.40;;;;;;5088174;27;22233;-77
2022/03/14 07:54:20;;;;;;;0.40;0.20;;;24.50;33.20;;;;;;5092421;28;20035;-79
2022/03/14 07:56:45;;;;;;;1.75;0.28;;;24.50;33.10;;;;;;5090777;27;20083;-76
2022/03/14 07:59:11;;;;;;;1.70;0.30;;;24.50;33.80;;;;;;5095515;27;20067;-76
2022/03/14 08:01:37;;;;;;;1.10;0.30;;;24.50;34.70;;;;;;5090540;28;20043;-73
2022/03/14 08:04:02;;;;;;;3.40;0.43;;;24.40;35.00;;;;;;5106565;27;20054;-74
2022/03/14 08:06:29;;;;;;;1.88;0.30;;;24.30;35.10;;;;;;5093245;27;20546;-76
2022/03/14 08:09:01;;;;;;;2.03;0.25;;;24.20;35.10;;;;;;5088033;28;20051;-84
2022/03/14 08:11:30;;;;;;;3.35;0.20;;;24.20;35.00;;;;;;5093296;27;20048;-75
2022/03/14 08:13:59;;;;;;;2.83;0.30;;;24.10;34.80;;;;;;5093030;28;20163;-74
2022/03/14 08:16:24;;;;;;;1.67;0.15;;;24.20;34.70;;;;;;5091948;28;20038;-80
2022/03/14 08:18:51;;;;;;;3.70;0.20;;;24.20;34.50;;;;;;5109737;27;20557;-73
2022/03/14 08:21:16;;;;;;;1.52;0.25;;;24.30;34.40;;;;;;5091829;27;20106;-73
2022/03/14 08:23:42;;;;;;;0.93;0.20;;;24.30;34.30;;;;;;5093315;28;20496;-77
2022/03/14 08:26:08;;;;;;;0.73;0.13;;;24.40;34.20;;;;;;5088811;27;20384;-73
2022/03/14 08:28:34;;;;;;;0.40;0.20;;;24.40;34.10;;;;;;5096622;27;20036;-74
2022/03/14 08:31:00;;;;;;;1.25;0.30;;;24.40;34.00;;;;;;5088578;27;20068;-78
2022/03/14 08:33:28;;;;;;;1.00;0.30;;;24.40;33.90;;;;;;5089881;28;20052;-77
2022/03/14 08:35:59;;;;;;;1.00;0.10;;;24.40;33.90;;;;;;5094565;28;20055;-76
2022/03/14 08:38:25;;;;;;;1.10;0.20;;;24.40;33.90;;;;;;5098692;28;20081;-77
2022/03/14 08:40:51;;;;;;;0.80;0.15;;;24.40;33.90;;;;;;5107911;27;20050;-76
2022/03/14 08:43:16;;;;;;;0.80;0.20;;;24.40;34.00;;;;;;5094369;28;20028;-74
2022/03/14 08:45:43;;;;;;;0.52;0.20;;;24.40;33.90;;;;;;5091623;27;20112;-74
2022/03/14 08:48:11;;;;;;;0.68;0.20;;;24.40;33.90;;;;;;5091471;27;20043;-77
2022/03/14 08:50:38;;;;;;;1.05;0.20;;;24.40;33.90;;;;;;5091254;27;20052;-81
2022/03/14 08:53:04;;;;;;;2.17;0.20;;;24.30;33.80;;;;;;5094340;28;20031;-78
2022/03/14 08:55:30;;;;;;;1.05;0.20;;;24.40;33.80;;;;;;5093552;28;20074;-77
2022/03/14 08:57:56;;;;;;;0.98;0.40;;;24.40;33.80;;;;;;5091385;28;20060;-75
2022/03/14 09:00:25;;;;;;;0.43;0.20;;;24.30;33.80;;;;;;5092710;28;20050;-77
2022/03/14 09:02:52;;;;;;;0.90;0.25;;;24.30;33.80;;;;;;5098614;28;20043;-75
2022/03/14 09:05:17;;;;;;;2.47;0.20;;;24.30;33.80;;;;;;5095105;28;20047;-81
2022/03/14 09:07:43;;;;;;;1.30;0.20;;;24.30;33.80;;;;;;5092835;28;20035;-75
2022/03/14 09:10:13;;;;;;;0.43;0.13;;;24.30;33.80;;;;;;5107460;27;20043;-80
2022/03/14 09:12:40;;;;;;;2.03;0.40;;;24.30;33.80;;;;;;5089042;28;20039;-74
2022/03/14 09:15:08;;;;;;;2.20;0.90;;;24.30;35.10;;;;;;5094355;27;20039;-75
2022/03/14 09:17:35;;;;;;;5.18;0.98;;;24.30;36.20;;;;;;5089147;28;20040;-73
2022/03/14 09:20:02;;;;;;;7.28;0.80;;;24.10;36.80;;;;;;5092709;27;20083;-74
2022/03/14 09:22:28;;;;;;;3.78;0.47;;;24.00;37.10;;;;;;5106125;27;20089;-76
2022/03/14 09:24:55;;;;;;;3.25;0.55;;;24.00;37.60;;;;;;5089259;28;20035;-76
2022/03/14 09:27:21;;;;;;;6.57;0.45;;;24.00;37.70;;;;;;5095326;28;20064;-78
2022/03/14 09:29:47;;;;;;;10.10;0.40;;;24.10;37.70;;;;;;5097013;28;20048;-74
2022/03/14 09:32:13;;;;;;;6.28;0.40;;;24.20;37.80;;;;;;5091020;27;20093;-73
2022/03/14 09:34:40;;;;;;;3.80;0.63;;;24.30;37.70;;;;;;5088012;28;20081;-76
2022/03/14 09:37:05;;;;;;;7.13;0.60;;;24.40;37.50;;;;;;5092644;27;20697;-73
2022/03/14 09:39:32;;;;;;;13.85;1.85;;;24.40;37.40;;;;;;5097513;28;20135;-73
2022/03/14 09:42:00;;;;;;;4.47;0.88;;;24.50;37.50;;;;;;5093568;28;20067;-73
2022/03/14 09:44:29;;;;;;;2.95;0.82;;;24.30;37.40;;;;;;5096797;28;20516;-73
2022/03/14 09:46:59;;;;;;;6.95;1.35;;;24.30;37.50;;;;;;5097325;28;20577;-75
2022/03/14 09:49:27;;;;;;;7.05;1.00;;;24.10;37.60;;;;;;5077556;28;20094;-75
2022/03/14 09:51:54;;;;;;;5.68;0.60;;;24.00;37.80;;;;;;5087161;28;20115;-73
2022/03/14 09:54:21;;;;;;;5.90;0.88;;;24.00;38.10;;;;;;5074575;28;20087;-69
2022/03/14 09:56:48;;;;;;;5.10;0.60;;;24.00;37.90;;;;;;5082969;28;20047;-73
2022/03/14 09:59:14;;;;;;;4.85;0.40;;;24.00;38.20;;;;;;5069861;28;20048;-69
2022/03/14 10:01:41;;;;;;;4.75;0.68;;;24.10;38.00;;;;;;5069853;28;20036;-72
2022/03/14 10:04:08;;;;;;;4.70;0.43;;;24.20;37.80;;;;;;5090604;28;20055;-69
2022/03/14 10:06:35;;;;;;;2.63;0.57;;;24.30;37.60;;;;;;5072737;28;20464;-70
2022/03/14 10:09:02;;;;;;;2.83;0.57;;;24.40;37.30;;;;;;5068596;28;20141;-73
2022/03/14 10:11:28;;;;;;;4.63;0.38;;;24.40;37.00;;;;;;5090872;28;20407;-73
2022/03/14 10:13:54;;;;;;;5.38;0.50;;;24.50;36.90;;;;;;5080473;28;20048;-72
2022/03/14 10:16:20;;;;;;;3.15;0.45;;;24.50;36.90;;;;;;5084209;28;20036;-73
2022/03/14 10:19:07;;;;;;;5.15;0.25;;;24.50;36.90;;;;;;5076180;27;20036;-72
2022/03/14 10:24:13;;;;;;;3.90;0.30;;;24.40;37.00;;;;;;5067085;27;20474;-78
2022/03/14 10:26:42;;;;;;;3.13;0.38;;;24.20;37.50;;;;;;5043041;28;20124;-77
2022/03/14 10:29:12;;;;;;;2.47;0.20;;;24.10;37.80;;;;;;5052031;28;20049;-73
2022/03/14 10:31:42;;;;;;;2.08;0.50;;;24.00;37.90;;;;;;5037675;28;20382;-71
2022/03/14 10:34:11;;;;;;;3.03;0.30;;;23.90;38.00;;;;;;5032811;28;20123;-74
2022/03/14 10:39:25;;;;;;;3.25;0.30;;;23.70;38.00;;;;;;5091072;27;20982;-72
2022/03/14 10:42:12;;;;;;;4.60;0.20;;;23.60;38.50;;;;;;5099760;28;20514;-71
2022/03/14 10:44:41;;;;;;;3.05;0.20;;;23.50;38.70;;;;;;5093719;28;20127;-71
2022/03/14 10:47:09;;;;;;;2.30;0.30;;;23.40;38.90;;;;;;5093971;28;20048;-71
2022/03/14 10:49:38;;;;;;;2.40;0.30;;;23.20;39.10;;;;;;5103625;28;20036;-72
2022/03/14 10:52:06;;;;;;;2.50;0.30;;;23.10;39.40;;;;;;5091067;28;20058;-72
2022/03/14 10:54:36;;;;;;;3.67;0.32;;;22.90;39.70;;;;;;5105595;28;20818;-71
2022/03/14 10:59:47;;;;;;;4.00;0.30;;;22.80;40.00;;;;;;5113164;27;20500;-71
2022/03/14 11:02:19;;;;;;;3.78;0.77;;;22.60;40.60;;;;;;5113633;27;20044;-74
2022/03/14 11:07:26;;;;;;;3.47;0.40;;;22.50;41.90;;;;;;5106947;27;20392;-71
2022/03/14 11:09:54;;;;;;;4.10;0.40;;;22.30;42.20;;;;;;5100253;28;20048;-74
2022/03/14 11:12:21;;;;;;;4.57;0.50;;;22.20;42.30;;;;;;5103603;28;20079;-75
2022/03/14 11:14:57;;;;;;;3.97;0.50;;;22.10;42.80;;;;;;5094801;28;20069;-76
2022/03/14 11:17:25;;;;;;;5.93;0.88;;;22.10;43.00;;;;;;5094019;28;20558;-69
2022/03/14 11:19:52;;;;;;;1.77;0.40;;;21.90;43.00;;;;;;5104373;28;20055;-73
2022/03/14 11:22:19;;;;;;;6.32;1.42;;;21.80;43.20;;;;;;5097420;28;20051;-74
2022/03/14 11:24:48;;;;;;;5.28;0.43;;;21.70;43.30;;;;;;5098811;28;20047;-78
2022/03/14 11:30:07;;;;;;;3.53;0.40;;;21.60;43.60;;;;;;5111910;27;1179822;-76
2022/03/14 11:32:35;;;;;;;6.65;0.63;;;21.50;43.60;;;;;;5118869;27;20057;-71
2022/03/14 11:35:01;;;;;;;6.85;0.73;;;21.40;43.70;;;;;;5121598;27;20039;-75
2022/03/14 11:37:30;;;;;;;5.18;0.65;;;21.30;43.70;;;;;;5124361;27;20049;-78
2022/03/14 11:39:57;;;;;;;2.95;0.30;;;21.30;43.90;;;;;;5122854;27;20111;-75
2022/03/14 11:42:26;;;;;;;5.07;0.50;;;21.20;44.10;;;;;;5121205;27;20118;-73
2022/03/14 11:44:53;;;;;;;3.97;0.50;;;21.10;44.20;;;;;;5123277;27;20077;-78
2022/03/14 11:47:20;;;;;;;5.75;0.30;;;21.10;44.60;;;;;;5121240;27;20046;-74
2022/03/14 11:49:47;;;;;;;9.18;0.65;;;21.00;44.50;;;;;;5120954;27;20533;-71
2022/03/14 11:52:19;;;;;;;7.95;0.90;;;21.00;44.70;;;;;;5121289;27;20058;-77
2022/03/14 11:54:58;;;;;;;7.72;0.50;;;20.90;44.90;;;;;;5114964;27;20043;-77
2022/03/14 11:57:41;;;;;;;4.43;0.70;;;20.90;44.80;;;;;;5117230;27;20040;-78
2022/03/14 12:03:37;;;;;;;6.75;1.05;;;20.90;44.90;;;;;;5097898;27;1239621;-80
2022/03/14 12:06:03;;;;;;;5.10;0.68;;;20.90;45.00;;;;;;5112455;27;20058;-77
2022/03/14 12:11:37;;;;;;;6.13;0.40;;;20.90;44.70;;;;;;5073245;27;20456;-77
2022/03/14 12:14:09;;;;;;;3.65;0.73;;;20.90;44.60;;;;;;5080111;28;20048;-79
2022/03/14 12:16:41;;;;;;;4.70;0.70;;;20.90;44.40;;;;;;5062988;28;20037;-73
2022/03/14 12:22:13;;;;;;;2.28;0.50;;;20.90;44.20;;;;;;5108205;27;20900;-73
2022/03/14 12:27:29;;;;;;;5.03;0.50;;;20.90;43.90;;;;;;5099537;27;20448;-73
2022/03/14 12:29:57;;;;;;;3.25;0.52;;;20.80;43.80;;;;;;5066354;28;20045;-74
2022/03/14 12:35:26;;;;;;;3.08;0.70;;;20.80;43.70;;;;;;5051366;28;20977;-70
2022/03/14 12:37:57;;;;;;;5.03;1.08;;;20.90;43.80;;;;;;5040807;28;21844;-70
2022/03/14 12:43:27;;;;;;;4.82;0.77;;;20.90;44.00;;;;;;5063070;28;20431;-71
2022/03/14 12:45:56;;;;;;;3.05;0.85;;;20.90;43.90;;;;;;5064506;28;20037;-69
2022/03/14 12:48:26;;;;;;;5.35;0.75;;;20.90;43.70;;;;;;5071096;28;20225;-70
2022/03/14 12:50:54;;;;;;;3.53;0.60;;;20.80;43.70;;;;;;5065963;28;20066;-73
2022/03/14 12:56:02;;;;;;;3.00;0.77;;;20.80;43.80;;;;;;5054426;28;20513;-71
2022/03/14 12:58:30;;;;;;;5.45;0.50;;;20.80;43.80;;;;;;5047934;28;20072;-76
2022/03/14 13:00:58;;;;;;;5.20;0.80;;;20.70;43.80;;;;;;5044124;28;20169;-72
2022/03/14 13:03:29;;;;;;;1.67;0.60;;;20.80;43.90;;;;;;5050831;28;20390;-74
2022/03/14 13:05:55;;;;;;;4.00;1.13;;;20.80;43.80;;;;;;5050070;28;20069;-73
2022/03/14 13:08:24;;;;;;;3.03;0.90;;;20.80;43.60;;;;;;5046790;28;20276;-73
2022/03/14 13:10:52;;;;;;;3.22;0.70;;;20.80;43.50;;;;;;5046361;28;20049;-74
2022/03/14 13:13:27;;;;;;;2.83;0.50;;;20.80;43.50;;;;;;5045459;28;20846;-74
2022/03/14 13:18:45;;;;;;;5.13;0.50;;;20.80;43.60;;;;;;5103156;27;20437;-79
2022/03/14 13:23:54;;;;;;;4.03;0.93;;;20.80;43.70;;;;;;5099222;27;20467;-74
2022/03/14 13:26:21;;;;;;;3.78;0.73;;;20.80;43.90;;;;;;5076124;28;20048;-72